Quartzsite, Arizona
Current Conditions -  °F | °C
As of 4:52 AM on Wednesday 28 Jan 2015 (Local Time) from KBLH Reporting Station
Haze Haze  
Wind Chill: 52°   Ceiling: Unl
Heat Index: 52°   Visibility: 4mi
Dew Point: 52°   Wind: 6mph
Humidity: 100%   Direction: 360°N
Pressure: 30.17"   Gusts: NA
Location:  33.67°N, 114.22°W
Report Text: KBLH 281152Z AUTO 36005KT 4SM BR FEW002 11/11 A3017 RMK AO2 SLP212 T01110111 10144 20111 58004
Loading
Personal Weather Stations






























Interactive Weather Map New forecast layout! Learn more

10-Day Weather Forecast

Advertisements
Track Severe Weather on mobile